sensor_id;sensor_type;location;lat;lon;timestamp;pressure;altitude;pressure_sealevel;temperature;humidity
63773;BME280;49919;53.612;55.898;2022-08-11T00:00:12;99817.94;;;19.69;69.11
63773;BME280;49919;53.612;55.898;2022-08-11T00:01:58;99826.31;;;19.68;69.14
63773;BME280;49919;53.612;55.898;2022-08-11T00:04:20;99816.44;;;19.58;69.98
63773;BME280;49919;53.612;55.898;2022-08-11T00:06:03;99816.53;;;19.48;70.28
63773;BME280;49919;53.612;55.898;2022-08-11T00:08:26;99822.72;;;19.48;70.71
63773;BME280;49919;53.612;55.898;2022-08-11T00:10:01;99823.81;;;19.47;70.72
63773;BME280;49919;53.612;55.898;2022-08-11T00:11:53;99820.31;;;19.47;70.89
63773;BME280;49919;53.612;55.898;2022-08-11T00:15:55;99820.97;;;19.34;71.86
63773;BME280;49919;53.612;55.898;2022-08-11T00:18:07;99830.41;;;19.31;71.88
63773;BME280;49919;53.612;55.898;2022-08-11T00:23:19;99824.84;;;19.23;72.12
63773;BME280;49919;53.612;55.898;2022-08-11T00:25:08;99822.75;;;19.14;72.40
63773;BME280;49919;53.612;55.898;2022-08-11T00:26:56;99824.44;;;19.05;73.25
63773;BME280;49919;53.612;55.898;2022-08-11T00:29:24;99820.19;;;18.99;73.26
63773;BME280;49919;53.612;55.898;2022-08-11T00:31:29;99833.13;;;19.02;73.43
63773;BME280;49919;53.612;55.898;2022-08-11T00:33:07;99840.16;;;18.98;73.52
63773;BME280;49919;53.612;55.898;2022-08-11T00:35:38;99836.38;;;18.99;73.63
63773;BME280;49919;53.612;55.898;2022-08-11T00:37:32;99843.38;;;19.00;73.92
63773;BME280;49919;53.612;55.898;2022-08-11T00:39:09;99846.53;;;19.07;74.05
63773;BME280;49919;53.612;55.898;2022-08-11T00:41:17;99841.63;;;19.14;73.88
63773;BME280;49919;53.612;55.898;2022-08-11T00:50:25;99830.88;;;19.09;73.68
63773;BME280;49919;53.612;55.898;2022-08-11T00:52:53;99831.13;;;19.13;73.84
63773;BME280;49919;53.612;55.898;2022-08-11T00:56:43;99836.00;;;19.11;74.00
63773;BME280;49919;53.612;55.898;2022-08-11T01:18:10;99845.41;;;19.13;72.93
63773;BME280;49919;53.612;55.898;2022-08-11T01:46:30;99858.00;;;19.23;72.31
63773;BME280;49919;53.612;55.898;2022-08-11T01:49:35;99839.75;;;19.10;72.21
63773;BME280;49919;53.612;55.898;2022-08-11T02:03:00;99866.94;;;19.18;72.36
63773;BME280;49919;53.612;55.898;2022-08-11T02:09:19;99869.22;;;19.35;71.86
63773;BME280;49919;53.612;55.898;2022-08-11T02:11:29;99871.06;;;19.40;71.79
63773;BME280;49919;53.612;55.898;2022-08-11T02:16:02;99858.53;;;19.54;71.53
63773;BME280;49919;53.612;55.898;2022-08-11T02:17:58;99873.44;;;19.75;71.08
63773;BME280;49919;53.612;55.898;2022-08-11T02:20:03;99876.38;;;19.79;70.59
63773;BME280;49919;53.612;55.898;2022-08-11T02:22:25;99872.53;;;19.85;70.56
63773;BME280;49919;53.612;55.898;2022-08-11T02:24:42;99856.06;;;19.87;70.01
63773;BME280;49919;53.612;55.898;2022-08-11T02:27:26;99867.94;;;20.09;69.69
63773;BME280;49919;53.612;55.898;2022-08-11T02:37:02;99874.88;;;20.39;68.55
63773;BME280;49919;53.612;55.898;2022-08-11T02:39:11;99874.31;;;20.42;68.42
63773;BME280;49919;53.612;55.898;2022-08-11T02:43:34;99859.19;;;20.41;68.33
63773;BME280;49919;53.612;55.898;2022-08-11T02:50:17;99889.50;;;20.57;68.47
63773;BME280;49919;53.612;55.898;2022-08-11T02:52:18;99889.94;;;20.64;68.35
63773;BME280;49919;53.612;55.898;2022-08-11T02:59:12;99877.41;;;20.92;67.51
63773;BME280;49919;53.612;55.898;2022-08-11T03:05:29;99899.28;;;21.28;66.76
63773;BME280;49919;53.612;55.898;2022-08-11T03:10:15;99899.59;;;21.59;65.83
63773;BME280;49919;53.612;55.898;2022-08-11T03:15:18;99902.16;;;21.83;64.48
63773;BME280;49919;53.612;55.898;2022-08-11T03:17:29;99903.53;;;21.80;64.42
63773;BME280;49919;53.612;55.898;2022-08-11T03:21:38;99916.56;;;21.92;63.89
63773;BME280;49919;53.612;55.898;2022-08-11T03:26:36;99911.63;;;22.13;63.41
63773;BME280;49919;53.612;55.898;2022-08-11T03:28:31;99916.03;;;22.22;62.93
63773;BME280;49919;53.612;55.898;2022-08-11T03:30:33;99919.03;;;22.35;62.49
63773;BME280;49919;53.612;55.898;2022-08-11T03:32:36;99918.63;;;22.41;62.27
63773;BME280;49919;53.612;55.898;2022-08-11T03:34:24;99907.09;;;22.49;62.10
63773;BME280;49919;53.612;55.898;2022-08-11T03:38:46;99915.38;;;22.80;61.33
63773;BME280;49919;53.612;55.898;2022-08-11T03:43:18;99934.91;;;23.05;60.70
63773;BME280;49919;53.612;55.898;2022-08-11T03:48:18;99942.13;;;23.32;60.01
63773;BME280;49919;53.612;55.898;2022-08-11T03:52:47;99940.34;;;23.49;59.15
63773;BME280;49919;53.612;55.898;2022-08-11T04:08:41;99925.94;;;23.93;58.14
63773;BME280;49919;53.612;55.898;2022-08-11T04:25:19;99960.03;;;25.31;54.62
63773;BME280;49919;53.612;55.898;2022-08-11T04:29:09;99959.84;;;25.53;54.29
63773;BME280;49919;53.612;55.898;2022-08-11T04:31:09;99963.69;;;25.69;54.06
63773;BME280;49919;53.612;55.898;2022-08-11T04:33:32;99962.06;;;25.85;53.59
63773;BME280;49919;53.612;55.898;2022-08-11T04:37:00;99957.34;;;26.03;52.91
63773;BME280;49919;53.612;55.898;2022-08-11T04:41:28;99963.81;;;26.28;52.15
63773;BME280;49919;53.612;55.898;2022-08-11T04:43:21;99955.16;;;26.35;52.17
63773;BME280;49919;53.612;55.898;2022-08-11T04:49:31;99953.06;;;26.90;50.59
63773;BME280;49919;53.612;55.898;2022-08-11T05:00:24;99949.16;;;27.42;48.99
63773;BME280;49919;53.612;55.898;2022-08-11T05:06:26;99958.59;;;27.65;48.13
63773;BME280;49919;53.612;55.898;2022-08-11T05:12:27;99960.19;;;27.66;47.84
63773;BME280;49919;53.612;55.898;2022-08-11T05:16:10;99958.47;;;27.74;47.73
63773;BME280;49919;53.612;55.898;2022-08-11T05:18:09;99962.72;;;27.83;47.66
63773;BME280;49919;53.612;55.898;2022-08-11T05:20:01;99960.72;;;27.92;47.23
63773;BME280;49919;53.612;55.898;2022-08-11T05:21:56;99960.03;;;28.08;47.20
63773;BME280;49919;53.612;55.898;2022-08-11T05:23:55;99956.84;;;28.18;47.00
63773;BME280;49919;53.612;55.898;2022-08-11T05:25:46;99958.38;;;28.27;46.67
63773;BME280;49919;53.612;55.898;2022-08-11T05:30:26;99950.59;;;28.66;45.51
63773;BME280;49919;53.612;55.898;2022-08-11T05:32:29;99953.56;;;28.73;45.37
63773;BME280;49919;53.612;55.898;2022-08-11T05:34:57;99948.44;;;28.84;45.19
63773;BME280;49919;53.612;55.898;2022-08-11T05:36:54;99953.91;;;28.96;45.11
63773;BME280;49919;53.612;55.898;2022-08-11T05:38:32;99954.00;;;28.99;44.96
63773;BME280;49919;53.612;55.898;2022-08-11T05:40:49;99946.66;;;29.16;44.97
63773;BME280;49919;53.612;55.898;2022-08-11T05:43:19;99951.16;;;29.24;44.02
63773;BME280;49919;53.612;55.898;2022-08-11T05:45:18;99953.88;;;29.36;43.81
63773;BME280;49919;53.612;55.898;2022-08-11T05:47:26;99945.88;;;29.43;43.72
63773;BME280;49919;53.612;55.898;2022-08-11T05:49:28;99951.94;;;29.64;43.28
63773;BME280;49919;53.612;55.898;2022-08-11T05:51:55;99954.94;;;29.75;42.83
63773;BME280;49919;53.612;55.898;2022-08-11T05:54:15;99949.09;;;30.05;42.67
63773;BME280;49919;53.612;55.898;2022-08-11T05:56:09;99947.31;;;30.28;41.72
63773;BME280;49919;53.612;55.898;2022-08-11T05:58:18;99946.22;;;30.48;41.48
63773;BME280;49919;53.612;55.898;2022-08-11T06:00:05;99943.75;;;30.43;41.08
63773;BME280;49919;53.612;55.898;2022-08-11T06:01:49;99943.66;;;30.40;40.95
63773;BME280;49919;53.612;55.898;2022-08-11T06:03:29;99938.97;;;30.40;40.94
63773;BME280;49919;53.612;55.898;2022-08-11T06:05:38;99939.84;;;30.60;40.45
63773;BME280;49919;53.612;55.898;2022-08-11T06:07:14;99926.47;;;30.58;40.18
63773;BME280;49919;53.612;55.898;2022-08-11T06:08:48;99946.59;;;30.82;40.03
63773;BME280;49919;53.612;55.898;2022-08-11T06:10:28;99950.38;;;30.93;39.72
63773;BME280;49919;53.612;55.898;2022-08-11T06:12:19;99950.97;;;31.02;39.84
63773;BME280;49919;53.612;55.898;2022-08-11T06:13:56;99944.34;;;31.22;39.39
63773;BME280;49919;53.612;55.898;2022-08-11T06:15:32;99951.06;;;31.25;39.36
63773;BME280;49919;53.612;55.898;2022-08-11T06:17:25;99954.97;;;31.43;38.82
63773;BME280;49919;53.612;55.898;2022-08-11T06:19:04;99955.31;;;31.42;38.39
63773;BME280;49919;53.612;55.898;2022-08-11T06:20:45;99950.06;;;31.33;37.94
63773;BME280;49919;53.612;55.898;2022-08-11T06:22:24;99949.13;;;31.25;38.12
63773;BME280;49919;53.612;55.898;2022-08-11T06:24:13;99950.13;;;31.37;38.54
63773;BME280;49919;53.612;55.898;2022-08-11T06:25:49;99945.34;;;31.53;37.65
63773;BME280;49919;53.612;55.898;2022-08-11T06:27:39;99945.06;;;31.58;37.52
63773;BME280;49919;53.612;55.898;2022-08-11T06:29:15;99939.66;;;31.65;37.62
63773;BME280;49919;53.612;55.898;2022-08-11T06:30:58;99932.41;;;31.53;37.58
63773;BME280;49919;53.612;55.898;2022-08-11T06:32:35;99920.34;;;31.61;37.40
63773;BME280;49919;53.612;55.898;2022-08-11T06:34:36;99947.72;;;31.96;37.33
63773;BME280;49919;53.612;55.898;2022-08-11T06:40:12;99950.75;;;32.14;36.69
63773;BME280;49919;53.612;55.898;2022-08-11T06:46:05;99951.13;;;32.35;36.25
63773;BME280;49919;53.612;55.898;2022-08-11T06:47:44;99945.03;;;32.49;36.15
63773;BME280;49919;53.612;55.898;2022-08-11T06:49:52;99946.66;;;32.77;35.88
63773;BME280;49919;53.612;55.898;2022-08-11T06:51:40;99938.44;;;33.10;35.37
63773;BME280;49919;53.612;55.898;2022-08-11T06:53:18;99937.94;;;33.31;34.69
63773;BME280;49919;53.612;55.898;2022-08-11T06:54:54;99946.81;;;33.51;34.38
63773;BME280;49919;53.612;55.898;2022-08-11T06:56:38;99940.00;;;33.78;34.03
63773;BME280;49919;53.612;55.898;2022-08-11T06:58:40;99937.81;;;33.94;33.85
63773;BME280;49919;53.612;55.898;2022-08-11T07:00:39;99943.31;;;33.94;33.51
63773;BME280;49919;53.612;55.898;2022-08-11T07:02:26;99933.81;;;33.88;33.52
63773;BME280;49919;53.612;55.898;2022-08-11T07:04:06;99935.44;;;33.93;33.28
63773;BME280;49919;53.612;55.898;2022-08-11T07:12:32;99935.56;;;34.11;33.14
63773;BME280;49919;53.612;55.898;2022-08-11T07:14:42;99936.53;;;34.29;33.38
63773;BME280;49919;53.612;55.898;2022-08-11T07:16:43;99936.69;;;34.54;32.68
63773;BME280;49919;53.612;55.898;2022-08-11T07:18:27;99937.69;;;34.90;32.45
63773;BME280;49919;53.612;55.898;2022-08-11T07:20:38;99936.22;;;35.14;31.82
63773;BME280;49919;53.612;55.898;2022-08-11T07:22:32;99928.81;;;35.35;31.63
63773;BME280;49919;53.612;55.898;2022-08-11T07:24:41;99936.00;;;35.65;31.26
63773;BME280;49919;53.612;55.898;2022-08-11T07:26:48;99931.66;;;35.74;30.94
63773;BME280;49919;53.612;55.898;2022-08-11T07:28:53;99930.09;;;35.77;30.57
63773;BME280;49919;53.612;55.898;2022-08-11T07:30:28;99931.69;;;35.82;30.32
63773;BME280;49919;53.612;55.898;2022-08-11T07:34:16;99925.38;;;36.06;30.12
63773;BME280;49919;53.612;55.898;2022-08-11T07:35:56;99921.81;;;36.13;30.11
63773;BME280;49919;53.612;55.898;2022-08-11T07:37:46;99918.25;;;36.33;29.99
63773;BME280;49919;53.612;55.898;2022-08-11T07:39:37;99924.91;;;36.75;29.18
63773;BME280;49919;53.612;55.898;2022-08-11T07:41:12;99920.53;;;36.81;28.55
63773;BME280;49919;53.612;55.898;2022-08-11T07:43:00;99920.94;;;36.62;29.21
63773;BME280;49919;53.612;55.898;2022-08-11T07:44:34;99915.41;;;36.69;29.04
63773;BME280;49919;53.612;55.898;2022-08-11T07:46:26;99918.53;;;36.89;28.88
63773;BME280;49919;53.612;55.898;2022-08-11T07:48:32;99916.03;;;37.12;28.53
63773;BME280;49919;53.612;55.898;2022-08-11T07:50:24;99917.22;;;37.18;27.98
63773;BME280;49919;53.612;55.898;2022-08-11T07:52:34;99914.41;;;37.25;28.33
63773;BME280;49919;53.612;55.898;2022-08-11T07:54:21;99906.38;;;37.45;27.98
63773;BME280;49919;53.612;55.898;2022-08-11T07:56:03;99916.19;;;37.57;28.02
63773;BME280;49919;53.612;55.898;2022-08-11T07:58:04;99907.38;;;37.76;27.38
63773;BME280;49919;53.612;55.898;2022-08-11T08:00:04;99892.06;;;38.05;27.06
63773;BME280;49919;53.612;55.898;2022-08-11T08:02:04;99897.28;;;38.41;26.69
63773;BME280;49919;53.612;55.898;2022-08-11T08:03:59;99896.44;;;38.82;26.09
63773;BME280;49919;53.612;55.898;2022-08-11T08:05:51;99898.84;;;39.14;26.27
63773;BME280;49919;53.612;55.898;2022-08-11T08:07:46;99903.94;;;39.46;24.87
63773;BME280;49919;53.612;55.898;2022-08-11T08:09:38;99903.19;;;39.15;24.92
63773;BME280;49919;53.612;55.898;2022-08-11T08:11:33;99896.44;;;38.82;25.13
63773;BME280;49919;53.612;55.898;2022-08-11T08:13:37;99898.53;;;38.33;25.83
63773;BME280;49919;53.612;55.898;2022-08-11T08:15:54;99896.28;;;37.76;26.64
63773;BME280;49919;53.612;55.898;2022-08-11T08:17:49;99898.63;;;37.12;27.85
63773;BME280;49919;53.612;55.898;2022-08-11T08:19:23;99885.72;;;36.77;28.29
63773;BME280;49919;53.612;55.898;2022-08-11T08:21:19;99880.25;;;36.41;28.25
63773;BME280;49919;53.612;55.898;2022-08-11T08:23:12;99890.56;;;36.01;28.62
63773;BME280;49919;53.612;55.898;2022-08-11T08:24:50;99879.50;;;35.77;28.63
63773;BME280;49919;53.612;55.898;2022-08-11T08:26:37;99893.69;;;35.57;28.96
63773;BME280;49919;53.612;55.898;2022-08-11T08:28:43;99892.81;;;35.21;29.60
63773;BME280;49919;53.612;55.898;2022-08-11T08:30:32;99885.66;;;35.02;30.40
63773;BME280;49919;53.612;55.898;2022-08-11T08:32:26;99867.34;;;34.69;30.33
63773;BME280;49919;53.612;55.898;2022-08-11T08:34:03;99881.97;;;34.73;30.30
63773;BME280;49919;53.612;55.898;2022-08-11T08:36:00;99874.00;;;34.65;30.47
63773;BME280;49919;53.612;55.898;2022-08-11T08:37:53;99872.41;;;34.53;31.21
63773;BME280;49919;53.612;55.898;2022-08-11T08:39:30;99865.34;;;34.59;31.20
63773;BME280;49919;53.612;55.898;2022-08-11T08:41:11;99878.75;;;34.64;30.76
63773;BME280;49919;53.612;55.898;2022-08-11T08:42:58;99876.41;;;34.63;31.06
63773;BME280;49919;53.612;55.898;2022-08-11T08:44:54;99876.81;;;34.72;30.88
63773;BME280;49919;53.612;55.898;2022-08-11T08:47:08;99876.97;;;34.97;30.22
63773;BME280;49919;53.612;55.898;2022-08-11T08:48:45;99878.69;;;35.44;29.62
63773;BME280;49919;53.612;55.898;2022-08-11T08:50:20;99881.50;;;36.26;28.63
63773;BME280;49919;53.612;55.898;2022-08-11T08:51:53;99883.56;;;37.23;28.12
63773;BME280;49919;53.612;55.898;2022-08-11T08:53:29;99879.22;;;38.60;26.27
63773;BME280;49919;53.612;55.898;2022-08-11T08:55:04;99887.44;;;40.08;24.60
63773;BME280;49919;53.612;55.898;2022-08-11T08:56:38;99879.03;;;41.31;23.19
63773;BME280;49919;53.612;55.898;2022-08-11T08:58:11;99885.91;;;42.40;22.16
63773;BME280;49919;53.612;55.898;2022-08-11T08:59:59;99890.25;;;43.50;21.11
63773;BME280;49919;53.612;55.898;2022-08-11T09:01:36;99887.00;;;43.98;20.20
63773;BME280;49919;53.612;55.898;2022-08-11T09:03:11;99895.38;;;43.51;20.37
63773;BME280;49919;53.612;55.898;2022-08-11T09:04:44;99888.22;;;42.70;21.59
63773;BME280;49919;53.612;55.898;2022-08-11T09:06:16;99892.94;;;41.67;22.63
63773;BME280;49919;53.612;55.898;2022-08-11T09:07:49;99897.38;;;40.72;23.44
63773;BME280;49919;53.612;55.898;2022-08-11T09:09:24;99883.91;;;39.81;24.68
63773;BME280;49919;53.612;55.898;2022-08-11T09:10:56;99879.50;;;39.03;25.81
63773;BME280;49919;53.612;55.898;2022-08-11T09:12:46;99872.63;;;38.47;26.37
63773;BME280;49919;53.612;55.898;2022-08-11T09:16:04;99868.03;;;37.88;27.31
63773;BME280;49919;53.612;55.898;2022-08-11T09:17:47;99870.16;;;38.15;26.89
63773;BME280;49919;53.612;55.898;2022-08-11T09:19:22;99867.28;;;38.63;26.58
63773;BME280;49919;53.612;55.898;2022-08-11T09:21:01;99867.19;;;39.31;26.12
63773;BME280;49919;53.612;55.898;2022-08-11T09:22:50;99865.44;;;39.44;25.06
63773;BME280;49919;53.612;55.898;2022-08-11T09:24:45;99863.44;;;39.68;24.73
63773;BME280;49919;53.612;55.898;2022-08-11T09:27:07;99862.66;;;40.37;24.12
63773;BME280;49919;53.612;55.898;2022-08-11T09:28:42;99867.59;;;40.69;23.91
63773;BME280;49919;53.612;55.898;2022-08-11T09:30:51;99867.63;;;41.58;22.93
63773;BME280;49919;53.612;55.898;2022-08-11T09:32:23;99871.22;;;42.36;22.10
63773;BME280;49919;53.612;55.898;2022-08-11T09:33:57;99872.16;;;42.46;21.59
63773;BME280;49919;53.612;55.898;2022-08-11T09:35:30;99868.34;;;42.23;21.72
63773;BME280;49919;53.612;55.898;2022-08-11T09:37:04;99858.88;;;42.50;21.65
63773;BME280;49919;53.612;55.898;2022-08-11T09:38:57;99864.34;;;42.53;21.02
63773;BME280;49919;53.612;55.898;2022-08-11T09:40:50;99855.19;;;43.32;20.36
63773;BME280;49919;53.612;55.898;2022-08-11T09:42:29;99865.78;;;44.45;19.59
63773;BME280;49919;53.612;55.898;2022-08-11T09:44:18;99852.69;;;45.74;18.50
63773;BME280;49919;53.612;55.898;2022-08-11T09:46:23;99838.84;;;47.28;17.62
63773;BME280;49919;53.612;55.898;2022-08-11T09:47:59;99842.22;;;48.13;16.84
63773;BME280;49919;53.612;55.898;2022-08-11T09:49:36;99839.16;;;48.70;16.21
63773;BME280;49919;53.612;55.898;2022-08-11T09:51:08;99840.81;;;49.26;15.76
63773;BME280;49919;53.612;55.898;2022-08-11T09:52:40;99830.97;;;48.72;15.47
63773;BME280;49919;53.612;55.898;2022-08-11T09:54:12;99837.22;;;47.03;16.13
63773;BME280;49919;53.612;55.898;2022-08-11T09:55:44;99828.50;;;45.68;17.08
63773;BME280;49919;53.612;55.898;2022-08-11T09:57:19;99837.63;;;44.48;18.18
63773;BME280;49919;53.612;55.898;2022-08-11T09:59:09;99835.47;;;42.98;19.42
63773;BME280;49919;53.612;55.898;2022-08-11T10:00:47;99824.78;;;42.26;20.41
63773;BME280;49919;53.612;55.898;2022-08-11T10:02:46;99823.03;;;41.87;20.79
63773;BME280;49919;53.612;55.898;2022-08-11T10:04:47;99820.50;;;41.11;21.34
63773;BME280;49919;53.612;55.898;2022-08-11T10:06:53;99816.88;;;39.95;21.91
63773;BME280;49919;53.612;55.898;2022-08-11T10:09:18;99831.31;;;39.13;23.07
63773;BME280;49919;53.612;55.898;2022-08-11T10:11:05;99823.72;;;38.56;23.76
63773;BME280;49919;53.612;55.898;2022-08-11T10:12:51;99817.56;;;38.00;24.27
63773;BME280;49919;53.612;55.898;2022-08-11T10:14:33;99816.69;;;37.66;25.04
63773;BME280;49919;53.612;55.898;2022-08-11T10:16:28;99821.41;;;37.10;26.29
63773;BME280;49919;53.612;55.898;2022-08-11T10:18:31;99824.00;;;36.65;26.75
63773;BME280;49919;53.612;55.898;2022-08-11T10:20:41;99822.59;;;36.00;27.87
63773;BME280;49919;53.612;55.898;2022-08-11T10:22:15;99816.28;;;35.64;28.49
63773;BME280;49919;53.612;55.898;2022-08-11T10:24:10;99823.34;;;35.26;29.05
63773;BME280;49919;53.612;55.898;2022-08-11T10:26:03;99829.97;;;34.83;29.85
63773;BME280;49919;53.612;55.898;2022-08-11T10:28:03;99817.50;;;34.34;30.38
63773;BME280;49919;53.612;55.898;2022-08-11T10:30:00;99810.88;;;33.87;31.22
63773;BME280;49919;53.612;55.898;2022-08-11T10:31:56;99812.16;;;33.56;30.96
63773;BME280;49919;53.612;55.898;2022-08-11T10:33:47;99823.75;;;33.28;31.11
63773;BME280;49919;53.612;55.898;2022-08-11T10:35:50;99820.00;;;33.10;31.18
63773;BME280;49919;53.612;55.898;2022-08-11T10:37:27;99825.78;;;33.01;30.71
63773;BME280;49919;53.612;55.898;2022-08-11T10:39:14;99832.00;;;32.95;30.53
63773;BME280;49919;53.612;55.898;2022-08-11T10:40:56;99832.75;;;32.88;30.89
63773;BME280;49919;53.612;55.898;2022-08-11T10:42:54;99837.97;;;32.70;31.02
63773;BME280;49919;53.612;55.898;2022-08-11T10:44:46;99837.06;;;32.59;31.12
63773;BME280;49919;53.612;55.898;2022-08-11T10:46:42;99832.31;;;32.56;31.04
63773;BME280;49919;53.612;55.898;2022-08-11T10:48:45;99846.00;;;32.53;31.44
63773;BME280;49919;53.612;55.898;2022-08-11T10:50:23;99851.16;;;32.54;30.76
63773;BME280;49919;53.612;55.898;2022-08-11T10:52:22;99875.59;;;32.59;32.33
63773;BME280;49919;53.612;55.898;2022-08-11T10:54:25;99865.28;;;32.00;36.31
63773;BME280;49919;53.612;55.898;2022-08-11T10:56:18;99874.88;;;31.22;38.34
63773;BME280;49919;53.612;55.898;2022-08-11T10:58:32;99881.00;;;30.77;39.90
63773;BME280;49919;53.612;55.898;2022-08-11T11:00:21;99879.94;;;30.46;39.94
63773;BME280;49919;53.612;55.898;2022-08-11T11:02:49;99878.97;;;30.39;40.21
63773;BME280;49919;53.612;55.898;2022-08-11T11:10:05;99871.69;;;30.62;38.92
63773;BME280;49919;53.612;55.898;2022-08-11T11:12:27;99865.84;;;30.83;38.14
63773;BME280;49919;53.612;55.898;2022-08-11T11:14:56;99866.28;;;31.04;37.70
63773;BME280;49919;53.612;55.898;2022-08-11T11:17:40;99876.38;;;31.39;37.54
63773;BME280;49919;53.612;55.898;2022-08-11T11:20:07;99876.03;;;31.21;36.78
63773;BME280;49919;53.612;55.898;2022-08-11T11:21:42;99871.78;;;31.23;37.07
63773;BME280;49919;53.612;55.898;2022-08-11T11:23:27;99871.81;;;31.46;37.18
63773;BME280;49919;53.612;55.898;2022-08-11T11:27:20;99876.38;;;31.81;36.73
63773;BME280;49919;53.612;55.898;2022-08-11T11:29:32;99883.81;;;32.29;36.65
63773;BME280;49919;53.612;55.898;2022-08-11T11:39:58;99887.38;;;36.21;30.87
63773;BME280;49919;53.612;55.898;2022-08-11T11:41:56;99887.97;;;37.03;30.69
63773;BME280;49919;53.612;55.898;2022-08-11T11:46:02;99896.44;;;37.48;29.18
63773;BME280;49919;53.612;55.898;2022-08-11T11:48:29;99895.84;;;37.19;30.24
63773;BME280;49919;53.612;55.898;2022-08-11T11:50:40;99888.88;;;36.79;29.70
63773;BME280;49919;53.612;55.898;2022-08-11T11:52:53;99883.06;;;36.30;30.42
63773;BME280;49919;53.612;55.898;2022-08-11T11:54:33;99881.13;;;35.92;30.67
63773;BME280;49919;53.612;55.898;2022-08-11T11:56:36;99869.97;;;35.35;31.29
63773;BME280;49919;53.612;55.898;2022-08-11T11:58:11;99892.47;;;35.33;31.39
63773;BME280;49919;53.612;55.898;2022-08-11T12:00:56;99881.41;;;35.30;31.73
63773;BME280;49919;53.612;55.898;2022-08-11T12:09:13;99878.84;;;38.92;26.87
63773;BME280;49919;53.612;55.898;2022-08-11T12:12:38;99862.25;;;38.85;27.30
63773;BME280;49919;53.612;55.898;2022-08-11T12:17:30;99878.22;;;40.55;25.92
63773;BME280;49919;53.612;55.898;2022-08-11T12:22:46;99876.00;;;44.17;21.87
63773;BME280;49919;53.612;55.898;2022-08-11T12:25:25;99881.97;;;45.55;20.25
63773;BME280;49919;53.612;55.898;2022-08-11T12:27:26;99871.78;;;46.34;19.13
63773;BME280;49919;53.612;55.898;2022-08-11T12:29:16;99872.03;;;46.82;18.83
63773;BME280;49919;53.612;55.898;2022-08-11T12:31:48;99886.16;;;47.15;16.77
63773;BME280;49919;53.612;55.898;2022-08-11T12:33:47;99859.28;;;47.14;16.59
63773;BME280;49919;53.612;55.898;2022-08-11T12:35:28;99878.13;;;47.23;16.83
63773;BME280;49919;53.612;55.898;2022-08-11T12:38:01;99876.78;;;47.18;16.68
63773;BME280;49919;53.612;55.898;2022-08-11T12:40:26;99878.00;;;46.57;17.10
63773;BME280;49919;53.612;55.898;2022-08-11T12:42:30;99867.22;;;44.71;17.79
63773;BME280;49919;53.612;55.898;2022-08-11T12:45:11;99855.78;;;42.60;19.96
63773;BME280;49919;53.612;55.898;2022-08-11T12:47:23;99846.66;;;41.17;21.70
63773;BME280;49919;53.612;55.898;2022-08-11T12:49:48;99853.44;;;40.80;22.25
63773;BME280;49919;53.612;55.898;2022-08-11T12:51:47;99853.16;;;40.35;22.53
63773;BME280;49919;53.612;55.898;2022-08-11T12:53:30;99845.97;;;39.67;23.40
63773;BME280;49919;53.612;55.898;2022-08-11T12:55:10;99846.66;;;38.94;24.03
63773;BME280;49919;53.612;55.898;2022-08-11T12:56:46;99843.16;;;38.19;25.50
63773;BME280;49919;53.612;55.898;2022-08-11T12:58:39;99834.63;;;37.47;26.20
63773;BME280;49919;53.612;55.898;2022-08-11T13:00:11;99836.53;;;37.02;26.68
63773;BME280;49919;53.612;55.898;2022-08-11T13:02:05;99834.41;;;36.36;27.62
63773;BME280;49919;53.612;55.898;2022-08-11T13:03:56;99838.41;;;35.79;28.83
63773;BME280;49919;53.612;55.898;2022-08-11T13:05:46;99843.53;;;35.41;29.47
63773;BME280;49919;53.612;55.898;2022-08-11T13:07:19;99839.16;;;35.29;29.71
63773;BME280;49919;53.612;55.898;2022-08-11T13:08:51;99836.81;;;35.28;30.12
63773;BME280;49919;53.612;55.898;2022-08-11T13:10:22;99828.47;;;35.24;29.97
63773;BME280;49919;53.612;55.898;2022-08-11T13:12:12;99829.63;;;35.02;30.34
63773;BME280;49919;53.612;55.898;2022-08-11T13:14:03;99837.84;;;34.88;30.81
63773;BME280;49919;53.612;55.898;2022-08-11T13:15:35;99829.88;;;34.72;31.33
63773;BME280;49919;53.612;55.898;2022-08-11T13:17:06;99827.50;;;34.63;31.43
63773;BME280;49919;53.612;55.898;2022-08-11T13:18:53;99833.78;;;34.60;31.63
63773;BME280;49919;53.612;55.898;2022-08-11T13:20:24;99837.00;;;34.77;31.66
63773;BME280;49919;53.612;55.898;2022-08-11T13:21:56;99831.59;;;35.01;30.99
63773;BME280;49919;53.612;55.898;2022-08-11T13:23:28;99840.28;;;35.14;31.14
63773;BME280;49919;53.612;55.898;2022-08-11T13:24:59;99835.63;;;35.39;30.93
63773;BME280;49919;53.612;55.898;2022-08-11T13:26:32;99832.47;;;36.12;29.97
63773;BME280;49919;53.612;55.898;2022-08-11T13:28:04;99835.13;;;36.51;29.83
63773;BME280;49919;53.612;55.898;2022-08-11T13:29:36;99831.00;;;36.95;29.12
63773;BME280;49919;53.612;55.898;2022-08-11T13:31:07;99830.72;;;37.89;27.84
63773;BME280;49919;53.612;55.898;2022-08-11T13:32:43;99833.25;;;39.16;26.20
63773;BME280;49919;53.612;55.898;2022-08-11T13:34:15;99834.53;;;40.28;24.66
63773;BME280;49919;53.612;55.898;2022-08-11T13:35:58;99850.16;;;41.21;23.49
63773;BME280;49919;53.612;55.898;2022-08-11T13:37:35;99845.81;;;41.36;23.23
63773;BME280;49919;53.612;55.898;2022-08-11T13:39:07;99841.81;;;41.54;22.77
63773;BME280;49919;53.612;55.898;2022-08-11T13:40:47;99829.06;;;41.85;22.18
63773;BME280;49919;53.612;55.898;2022-08-11T13:42:40;99838.47;;;42.07;21.69
63773;BME280;49919;53.612;55.898;2022-08-11T13:46:39;99842.06;;;41.59;22.05
63773;BME280;49919;53.612;55.898;2022-08-11T13:48:24;99852.69;;;41.81;22.05
63773;BME280;49919;53.612;55.898;2022-08-11T13:50:56;99847.94;;;41.65;21.76